Time;durP1;ratioP1;P1;durP2;ratioP2;P2;SDS_P1;SDS_P2;PMS_P1;PMS_P2;Temp;Humidity;BMP_temperature;BMP_pressure;BME280_temperature;BME280_humidity;BME280_pressure;Samples;Min_cycle;Max_cycle;Signal;HPM_P1;HPM_P2
2023/03/05 00:02:22;;;;;;;;;23.50;21.75;;;;;7.13;100.00;102181.97;4912142;28;51140;-66
2023/03/05 00:04:48;;;;;;;;;24.50;22.25;;;;;7.21;100.00;102199.00;4911252;28;49176;-66
2023/03/05 00:07:13;;;;;;;;;25.75;24.25;;;;;7.12;100.00;102180.19;4910763;28;49743;-66
2023/03/05 00:09:39;;;;;;;;;31.00;24.00;;;;;6.80;100.00;102116.59;4910919;28;49408;-67
2023/03/05 00:12:05;;;;;;;;;27.25;20.00;;;;;7.05;100.00;102158.06;4910044;28;49852;-66
2023/03/05 00:14:31;;;;;;;;;25.25;25.25;;;;;6.51;100.00;102061.81;4911600;28;49214;-66
2023/03/05 00:16:56;;;;;;;;;30.75;29.00;;;;;7.11;100.00;102167.94;4910749;28;49343;-65
2023/03/05 00:19:21;;;;;;;;;26.25;25.50;;;;;7.23;100.00;102176.47;4910597;28;49319;-67
2023/03/05 00:21:47;;;;;;;;;26.00;22.00;;;;;7.25;100.00;102189.63;4911816;28;50209;-66
2023/03/05 00:24:16;;;;;;;;;33.00;29.00;;;;;7.09;100.00;102157.41;4910807;28;49345;-67
2023/03/05 00:26:41;;;;;;;;;19.00;18.75;;;;;7.32;100.00;102199.59;4912040;28;49371;-66
2023/03/05 00:29:08;;;;;;;;;26.00;23.00;;;;;6.40;100.00;102044.66;4910320;28;49841;-66
2023/03/05 00:31:35;;;;;;;;;28.50;24.75;;;;;7.15;100.00;102186.50;4912212;28;50029;-66
2023/03/05 00:34:04;;;;;;;;;28.00;23.50;;;;;7.23;100.00;102205.19;4911633;28;49372;-66
2023/03/05 00:36:29;;;;;;;;;24.50;24.50;;;;;7.15;100.00;102188.22;4926570;28;49545;-66
2023/03/05 00:38:55;;;;;;;;;29.75;29.25;;;;;6.96;100.00;102159.25;4912181;28;49614;-66
2023/03/05 00:41:20;;;;;;;;;23.50;23.50;;;;;7.24;100.00;102209.63;4910160;28;50924;-66
2023/03/05 00:43:46;;;;;;;;;21.25;20.75;;;;;6.43;100.00;102053.53;4910981;28;49377;-66
2023/03/05 00:46:12;;;;;;;;;25.25;21.75;;;;;7.27;100.00;102198.47;4910634;28;49407;-66
2023/03/05 00:48:37;;;;;;;;;25.50;22.50;;;;;7.14;100.00;102173.34;4909702;28;54556;-67
2023/03/05 00:51:03;;;;;;;;;32.00;27.50;;;;;6.37;100.00;102042.78;4911310;28;50934;-66
2023/03/05 00:53:28;;;;;;;;;23.75;22.25;;;;;6.79;100.00;102127.84;4910005;28;49550;-66
2023/03/05 00:55:54;;;;;;;;;16.25;16.25;;;;;7.14;100.00;102175.94;4909491;28;49500;-66
2023/03/05 00:58:19;;;;;;;;;24.25;22.75;;;;;6.57;100.00;102077.84;4909318;28;49396;-66
2023/03/05 01:00:44;;;;;;;;;32.00;28.25;;;;;6.91;100.00;102158.97;4909209;28;50257;-66
2023/03/05 01:03:10;;;;;;;;;30.50;24.00;;;;;6.91;100.00;102147.63;4911750;28;49606;-66
2023/03/05 01:05:35;;;;;;;;;29.00;26.00;;;;;7.06;100.00;102164.19;4910348;28;49690;-67
2023/03/05 01:08:01;;;;;;;;;25.50;24.25;;;;;7.08;100.00;102160.84;4910249;28;49225;-66
2023/03/05 01:10:27;;;;;;;;;27.00;24.75;;;;;6.89;100.00;102138.00;4909976;28;50747;-66
2023/03/05 01:12:54;;;;;;;;;26.00;24.50;;;;;7.13;100.00;102182.88;4910656;28;49779;-66
2023/03/05 01:15:19;;;;;;;;;33.25;25.50;;;;;7.11;100.00;102181.91;4909588;28;49665;-66
2023/03/05 01:17:44;;;;;;;;;29.00;24.25;;;;;6.79;100.00;102120.00;4910072;28;49348;-66
2023/03/05 01:20:14;;;;;;;;;28.00;26.25;;;;;6.96;100.00;102148.81;4909686;28;50434;-66
2023/03/05 01:22:40;;;;;;;;;31.00;30.25;;;;;7.01;100.00;102178.69;4908411;28;49990;-66
2023/03/05 01:25:06;;;;;;;;;26.50;23.75;;;;;6.87;100.00;102168.34;4910738;28;49551;-66
2023/03/05 01:27:32;;;;;;;;;34.25;30.00;;;;;6.99;100.00;102175.97;4909735;28;49985;-66
2023/03/05 01:29:57;;;;;;;;;28.00;27.25;;;;;6.39;100.00;102053.28;4909583;28;50408;-66
2023/03/05 01:32:22;;;;;;;;;33.75;29.75;;;;;6.81;100.00;102130.53;4910049;28;49161;-67
2023/03/05 01:34:48;;;;;;;;;28.25;24.00;;;;;6.63;100.00;102103.38;4909561;28;49483;-67
2023/03/05 01:37:13;;;;;;;;;30.00;25.50;;;;;6.23;100.00;102033.25;4910576;28;49427;-66
2023/03/05 01:39:38;;;;;;;;;27.50;26.25;;;;;6.79;100.00;102126.94;4909912;28;50619;-66
2023/03/05 01:42:04;;;;;;;;;31.75;23.00;;;;;6.38;100.00;102052.41;4910294;28;49417;-66
2023/03/05 01:44:31;;;;;;;;;30.50;27.25;;;;;6.34;100.00;102044.28;4904040;28;50141;-66
2023/03/05 01:46:57;;;;;;;;;30.25;27.00;;;;;6.88;100.00;102136.22;4909744;28;49295;-66
2023/03/05 01:49:32;;;;;;;;;32.25;26.50;;;;;6.87;100.00;102137.03;4910774;28;49591;-66
2023/03/05 01:52:07;;;;;;;;;29.75;26.00;;;;;6.86;100.00;102132.63;4904685;28;49763;-66
2023/03/05 01:54:42;;;;;;;;;29.75;23.75;;;;;6.70;100.00;102096.00;4911341;28;49313;-66
2023/03/05 01:57:12;;;;;;;;;27.00;27.00;;;;;6.66;100.00;102088.81;4909767;28;49587;-66
2023/03/05 01:59:41;;;;;;;;;37.50;34.50;;;;;6.87;100.00;102121.34;4909416;28;50450;-66
2023/03/05 02:02:07;;;;;;;;;32.25;27.25;;;;;6.63;100.00;102078.19;4909195;28;49848;-66
2023/03/05 02:04:44;;;;;;;;;44.50;31.75;;;;;6.80;100.00;102110.47;4909212;28;49350;-67
2023/03/05 02:07:12;;;;;;;;;28.25;27.50;;;;;6.80;100.00;102124.41;4909623;28;49508;-66
2023/03/05 02:09:39;;;;;;;;;32.25;26.50;;;;;6.82;100.00;102125.41;4908990;28;50644;-66
2023/03/05 02:12:06;;;;;;;;;35.00;31.50;;;;;6.51;100.00;102059.22;4911293;28;49499;-66
2023/03/05 02:14:32;;;;;;;;;38.50;30.00;;;;;6.73;100.00;102090.94;4926963;28;49696;-66
2023/03/05 02:16:58;;;;;;;;;29.00;24.75;;;;;6.79;100.00;102113.91;4914174;28;49600;-66
2023/03/05 02:19:23;;;;;;;;;28.50;27.50;;;;;6.59;100.00;102071.91;4912703;28;50167;-66
2023/03/05 02:21:49;;;;;;;;;31.25;28.00;;;;;6.62;100.00;102073.78;4912767;28;52807;-66
2023/03/05 02:24:33;;;;;;;;;32.50;25.75;;;;;6.69;100.00;102070.72;4912975;28;49561;-65
2023/03/05 02:26:59;;;;;;;;;33.00;30.75;;;;;6.71;100.00;102074.31;4912727;28;49629;-66
2023/03/05 02:29:28;;;;;;;;;33.75;29.50;;;;;6.74;100.00;102060.53;4914178;28;50361;-67
2023/03/05 02:31:54;;;;;;;;;28.25;24.00;;;;;6.72;100.00;102055.22;4913894;28;49317;-66
2023/03/05 02:34:19;;;;;;;;;25.75;25.25;;;;;6.24;100.00;101969.84;4911743;28;49301;-66
2023/03/05 02:36:45;;;;;;;;;21.00;21.00;;;;;6.11;100.00;101939.56;4918001;28;49534;-66
2023/03/05 02:39:10;;;;;;;;;29.75;28.00;;;;;6.76;100.00;102053.69;4931338;28;49587;-66
2023/03/05 02:41:36;;;;;;;;;31.00;25.25;;;;;6.69;100.00;102035.91;4930540;28;49447;-66
2023/03/05 02:44:01;;;;;;;;;20.25;19.50;;;;;7.01;100.00;102085.56;4930557;28;50204;-66
2023/03/05 02:46:26;;;;;;;;;29.25;27.50;;;;;6.67;100.00;102019.25;4929921;28;54268;-66
2023/03/05 02:48:52;;;;;;;;;30.50;26.75;;;;;6.49;100.00;101982.59;4930740;28;49859;-66
2023/03/05 02:51:17;;;;;;;;;26.50;24.75;;;;;6.62;100.00;102015.47;4930055;28;49307;-67
2023/03/05 02:53:42;;;;;;;;;32.75;25.00;;;;;5.75;100.00;101852.31;4930283;28;49664;-66
2023/03/05 02:56:08;;;;;;;;;31.75;25.25;;;;;6.88;100.00;102070.94;4931342;28;49218;-66
2023/03/05 02:58:33;;;;;;;;;30.25;27.75;;;;;6.39;100.00;101962.00;4930306;28;53324;-66
2023/03/05 03:00:58;;;;;;;;;25.25;24.00;;;;;6.97;100.00;102056.63;4930805;28;49687;-66
2023/03/05 03:03:24;;;;;;;;;25.50;22.50;;;;;6.72;100.00;102017.78;4930365;28;49455;-66
2023/03/05 03:05:49;;;;;;;;;36.75;28.75;;;;;6.95;100.00;102037.34;4931059;28;49460;-66
2023/03/05 03:08:14;;;;;;;;;31.25;28.50;;;;;6.80;100.00;102020.00;4929215;28;56225;-66
2023/03/05 03:10:40;;;;;;;;;29.00;26.75;;;;;6.64;100.00;101982.53;4930037;28;49233;-66
2023/03/05 03:13:05;;;;;;;;;23.25;23.25;;;;;6.40;100.00;101929.91;4930986;28;49410;-66
2023/03/05 03:15:30;;;;;;;;;27.75;27.75;;;;;6.94;100.00;102038.16;4930429;28;49707;-66
2023/03/05 03:17:56;;;;;;;;;22.00;15.75;;;;;6.80;100.00;101993.03;4929440;28;49825;-67
2023/03/05 03:20:21;;;;;;;;;27.75;22.75;;;;;6.92;100.00;102009.34;4930559;28;49110;-66
2023/03/05 03:22:47;;;;;;;;;19.25;12.50;;;;;7.04;100.00;102049.19;4929566;28;49583;-66
2023/03/05 03:25:14;;;;;;;;;31.50;24.75;;;;;6.68;100.00;101974.06;4931581;28;49354;-66
2023/03/05 03:27:39;;;;;;;;;39.75;28.00;;;;;6.78;100.00;101989.44;4928210;28;50796;-66
2023/03/05 03:30:05;;;;;;;;;27.50;24.50;;;;;6.89;100.00;101998.75;4930172;28;51304;-66
2023/03/05 03:32:31;;;;;;;;;27.50;26.00;;;;;7.03;100.00;102025.59;4930262;28;49387;-66
2023/03/05 03:34:57;;;;;;;;;32.25;27.25;;;;;6.76;100.00;101986.75;4929643;28;49543;-67
2023/03/05 03:37:22;;;;;;;;;25.00;24.25;;;;;6.98;100.00;102003.59;4931129;28;49703;-67
2023/03/05 03:39:48;;;;;;;;;27.00;27.00;;;;;6.96;100.00;102000.91;4929799;28;49345;-66
2023/03/05 03:42:16;;;;;;;;;28.75;24.00;;;;;7.00;100.00;101995.00;4930311;28;49480;-67
2023/03/05 03:44:42;;;;;;;;;25.75;25.00;;;;;6.56;100.00;101916.88;4930073;28;49419;-66
2023/03/05 03:47:07;;;;;;;;;28.25;22.25;;;;;6.43;100.00;101890.94;4928928;28;60190;-67
2023/03/05 03:49:32;;;;;;;;;34.25;24.50;;;;;6.96;100.00;101985.22;4930001;28;49349;-66
2023/03/05 03:51:58;;;;;;;;;33.00;28.50;;;;;7.12;100.00;102010.44;4929936;28;49542;-66
2023/03/05 03:54:24;;;;;;;;;30.25;21.00;;;;;6.94;100.00;101971.16;4931335;28;49953;-66
2023/03/05 03:56:49;;;;;;;;;30.75;30.25;;;;;7.16;100.00;102005.50;4929795;28;50384;-66
2023/03/05 03:59:14;;;;;;;;;27.00;25.00;;;;;6.90;100.00;101958.78;4928005;28;49908;-66
2023/03/05 04:01:40;;;;;;;;;34.75;28.50;;;;;6.97;100.00;101971.34;4922655;28;50383;-66
2023/03/05 04:04:06;;;;;;;;;27.75;25.00;;;;;7.00;100.00;101976.75;4914244;28;49873;-66
2023/03/05 04:06:32;;;;;;;;;30.50;26.25;;;;;6.90;100.00;101961.38;4913811;28;49702;-66
2023/03/05 04:08:58;;;;;;;;;28.50;24.00;;;;;7.17;100.00;101994.22;4913939;28;49810;-66
2023/03/05 04:11:23;;;;;;;;;27.75;25.00;;;;;7.12;100.00;101986.94;4913921;28;49656;-66
2023/03/05 04:13:49;;;;;;;;;28.00;25.00;;;;;6.91;100.00;101934.47;4914336;28;49792;-66
2023/03/05 04:16:15;;;;;;;;;20.75;20.75;;;;;7.21;100.00;101992.66;4912883;28;50796;-66
2023/03/05 04:18:42;;;;;;;;;26.25;21.50;;;;;6.96;100.00;101958.22;4913817;28;50037;-65
2023/03/05 04:21:08;;;;;;;;;22.50;20.50;;;;;7.08;100.00;101958.88;4896633;28;49744;-66
2023/03/05 04:23:33;;;;;;;;;28.75;23.00;;;;;6.99;100.00;101942.72;4895677;28;49752;-68
2023/03/05 04:25:59;;;;;;;;;27.75;24.50;;;;;6.82;100.00;101907.88;4895125;28;50510;-66
2023/03/05 04:28:24;;;;;;;;;42.25;29.50;;;;;6.81;100.00;101906.97;4895237;28;49700;-66
2023/03/05 04:30:50;;;;;;;;;30.25;26.00;;;;;7.27;100.00;101986.88;4895573;28;50003;-67
2023/03/05 04:33:15;;;;;;;;;32.50;25.75;;;;;7.22;100.00;101970.06;4893569;28;49958;-66
2023/03/05 04:35:41;;;;;;;;;25.50;24.00;;;;;7.20;100.00;101987.38;4894632;28;50357;-66
2023/03/05 04:38:07;;;;;;;;;28.50;28.00;;;;;7.18;100.00;101969.00;4904481;28;49575;-66
2023/03/05 04:40:33;;;;;;;;;23.50;21.75;;;;;7.01;100.00;101928.94;4910118;28;49645;-66
2023/03/05 04:42:58;;;;;;;;;24.25;19.50;;;;;6.45;100.00;101830.19;4930418;28;49510;-66
2023/03/05 04:45:23;;;;;;;;;27.75;24.25;;;;;7.17;100.00;101946.31;4927311;28;61032;-66
2023/03/05 04:47:49;;;;;;;;;28.25;25.75;;;;;6.93;100.00;101916.28;4929896;28;49454;-66
2023/03/05 04:50:14;;;;;;;;;28.50;26.00;;;;;7.25;100.00;101976.34;4929167;28;49693;-67
2023/03/05 04:52:42;;;;;;;;;34.25;27.75;;;;;7.04;100.00;101938.63;4928691;28;49766;-67
2023/03/05 04:55:08;;;;;;;;;26.50;22.25;;;;;7.19;100.00;101968.19;4930036;28;50569;-66
2023/03/05 04:57:34;;;;;;;;;26.00;20.75;;;;;7.09;100.00;101942.41;4929190;28;49604;-66
2023/03/05 04:59:59;;;;;;;;;29.50;24.25;;;;;6.97;100.00;101921.75;4929563;28;49308;-66
2023/03/05 05:02:25;;;;;;;;;29.75;22.00;;;;;6.98;100.00;101915.72;4928590;28;49558;-66
2023/03/05 05:04:53;;;;;;;;;32.75;28.00;;;;;7.19;100.00;101947.28;4927244;28;49885;-66
2023/03/05 05:07:19;;;;;;;;;24.50;19.75;;;;;6.84;100.00;101888.84;4917622;28;49490;-66
2023/03/05 05:09:44;;;;;;;;;26.50;22.75;;;;;6.82;100.00;101884.38;4908985;28;49443;-67
2023/03/05 05:12:10;;;;;;;;;31.25;24.00;;;;;6.78;100.00;101878.09;4909740;28;49215;-68
2023/03/05 05:14:35;;;;;;;;;35.00;29.75;;;;;7.18;100.00;101943.78;4909855;28;50187;-70
2023/03/05 05:17:03;;;;;;;;;24.50;22.25;;;;;6.60;100.00;101846.69;4909679;28;49665;-66
2023/03/05 05:19:35;;;;;;;;;28.00;26.75;;;;;6.84;100.00;101875.81;4909734;28;49418;-66
2023/03/05 05:22:01;;;;;;;;;28.00;22.25;;;;;6.72;100.00;101856.00;4910876;28;49520;-67
2023/03/05 05:24:26;;;;;;;;;23.25;21.25;;;;;6.95;100.00;101904.19;4910059;28;49599;-67
2023/03/05 05:26:54;;;;;;;;;28.50;25.75;;;;;6.81;100.00;101878.25;4910499;28;49270;-67
2023/03/05 05:29:20;;;;;;;;;28.75;24.75;;;;;7.08;100.00;101920.63;4909483;28;49375;-66
2023/03/05 05:31:46;;;;;;;;;23.00;20.00;;;;;7.12;100.00;101937.31;4909017;28;49812;-67
2023/03/05 05:34:11;;;;;;;;;21.00;15.25;;;;;6.57;100.00;101843.03;4909868;28;50291;-67
2023/03/05 05:36:37;;;;;;;;;21.00;17.75;;;;;6.30;100.00;101806.81;4910415;28;52195;-67
2023/03/05 05:39:03;;;;;;;;;16.25;16.25;;;;;6.87;100.00;101928.19;4909710;28;49366;-66
2023/03/05 05:41:28;;;;;;;;;12.25;12.00;;;;;6.96;100.00;101933.03;4911384;28;49744;-66
2023/03/05 05:43:54;;;;;;;;;16.25;16.00;;;;;6.48;100.00;101840.81;4929338;28;50655;-67
2023/03/05 05:46:19;;;;;;;;;18.75;16.00;;;;;6.56;100.00;101860.41;4943967;28;49582;-68
2023/03/05 05:48:45;;;;;;;;;15.50;14.75;;;;;6.86;100.00;101902.91;4929115;28;49507;-68
2023/03/05 05:51:16;;;;;;;;;23.25;20.50;;;;;6.80;100.00;101886.00;4928843;28;49644;-66
2023/03/05 05:53:42;;;;;;;;;27.25;23.00;;;;;6.93;100.00;101905.81;4914198;28;49806;-71
2023/03/05 05:56:08;;;;;;;;;25.75;21.00;;;;;6.64;100.00;101852.97;4911217;28;49853;-66
2023/03/05 05:58:35;;;;;;;;;26.50;25.75;;;;;7.02;100.00;101922.00;4911401;28;49822;-66
2023/03/05 06:01:01;;;;;;;;;25.00;22.75;;;;;6.42;100.00;101811.78;4915272;28;49798;-67
2023/03/05 06:03:27;;;;;;;;;22.25;19.75;;;;;6.61;100.00;101847.59;4927230;28;49783;-66
2023/03/05 06:05:52;;;;;;;;;20.25;19.50;;;;;6.93;100.00;101901.50;4928144;28;49412;-65
2023/03/05 06:08:18;;;;;;;;;21.25;17.00;;;;;6.61;100.00;101844.97;4927712;28;49724;-67
2023/03/05 06:10:43;;;;;;;;;15.75;14.75;;;;;6.65;100.00;101870.41;4927846;28;49297;-66
2023/03/05 06:13:09;;;;;;;;;11.50;11.25;;;;;6.82;100.00;101898.31;4927697;28;50541;-66
2023/03/05 06:15:34;;;;;;;;;14.50;11.25;;;;;6.52;100.00;101836.66;4914132;28;49765;-72
2023/03/05 06:18:00;;;;;;;;;14.75;13.50;;;;;6.90;100.00;101914.41;4912737;28;49921;-72
2023/03/05 06:20:27;;;;;;;;;13.50;10.75;;;;;6.58;100.00;101861.38;4911418;28;49759;-70
2023/03/05 06:22:52;;;;;;;;;17.50;14.25;;;;;6.83;100.00;101901.81;4911467;28;50649;-66
2023/03/05 06:25:18;;;;;;;;;18.75;15.25;;;;;6.70;100.00;101873.28;4911854;28;50047;-65
2023/03/05 06:27:43;;;;;;;;;15.50;15.25;;;;;6.42;100.00;101818.72;4911660;28;49898;-66
2023/03/05 06:30:10;;;;;;;;;21.75;14.75;;;;;6.55;100.00;101849.84;4912177;28;49945;-66
2023/03/05 06:32:36;;;;;;;;;17.75;17.50;;;;;6.96;100.00;101924.28;4904260;28;49886;-66
2023/03/05 06:35:01;;;;;;;;;11.50;11.50;;;;;6.85;100.00;101895.91;4893891;28;49856;-66
2023/03/05 06:37:27;;;;;;;;;21.25;18.00;;;;;6.33;100.00;101806.06;4893281;28;49827;-66
2023/03/05 06:39:52;;;;;;;;;20.00;20.00;;;;;6.46;100.00;101836.31;4893508;28;49823;-66
2023/03/05 06:42:18;;;;;;;;;17.75;14.50;;;;;6.73;100.00;101871.72;4893055;28;57912;-66
2023/03/05 06:44:44;;;;;;;;;16.50;16.50;;;;;6.92;100.00;101901.44;4893452;28;49913;-66
2023/03/05 06:47:09;;;;;;;;;20.00;13.75;;;;;6.71;100.00;101898.56;4893512;28;49759;-66
2023/03/05 06:49:35;;;;;;;;;20.00;18.75;;;;;6.93;100.00;101913.66;4893725;28;49783;-67
2023/03/05 06:52:02;;;;;;;;;16.00;14.50;;;;;6.95;100.00;101918.16;4891864;28;50649;-66
2023/03/05 06:54:27;;;;;;;;;14.25;14.25;;;;;6.86;100.00;101887.25;4893103;28;49773;-66
2023/03/05 06:56:53;;;;;;;;;10.00;9.75;;;;;6.92;100.00;101906.66;4893765;28;50017;-66
2023/03/05 06:59:18;;;;;;;;;18.25;14.50;;;;;6.79;100.00;101885.13;4896720;28;50030;-66
2023/03/05 07:01:44;;;;;;;;;14.75;12.25;;;;;6.65;100.00;101843.41;4905284;28;50657;-66
2023/03/05 07:04:11;;;;;;;;;18.25;15.75;;;;;6.83;100.00;101875.72;4911636;28;49613;-66
2023/03/05 07:06:37;;;;;;;;;14.75;12.50;;;;;7.06;100.00;101910.91;4910467;28;49420;-66
2023/03/05 07:09:05;;;;;;;;;16.75;14.75;;;;;6.89;100.00;101869.13;4910557;28;49638;-66
2023/03/05 07:11:31;;;;;;;;;20.00;15.50;;;;;6.95;100.00;101880.69;4912633;28;49709;-66
2023/03/05 07:13:57;;;;;;;;;15.00;13.25;;;;;7.12;100.00;101906.00;4913182;28;48997;-66
2023/03/05 07:16:26;;;;;;;;;21.25;14.75;;;;;7.14;100.00;101915.72;4913394;28;49641;-67
2023/03/05 07:18:53;;;;;;;;;18.50;18.25;;;;;7.09;100.00;101911.06;4911770;28;49349;-66
2023/03/05 07:21:21;;;;;;;;;16.50;15.00;;;;;6.96;100.00;101879.91;4911910;28;49721;-66
2023/03/05 07:23:46;;;;;;;;;19.25;14.75;;;;;7.01;100.00;101874.09;4910950;28;49353;-66
2023/03/05 07:26:12;;;;;;;;;17.25;17.25;;;;;7.02;100.00;101872.38;4912614;28;49570;-66
2023/03/05 07:28:37;;;;;;;;;19.25;16.50;;;;;6.82;100.00;101827.84;4912024;28;49320;-67
2023/03/05 07:31:09;;;;;;;;;18.00;16.00;;;;;7.29;100.00;101909.50;4911487;28;49632;-66
2023/03/05 07:33:36;;;;;;;;;18.50;15.75;;;;;7.29;100.00;101913.00;4911681;28;49436;-66
2023/03/05 07:36:03;;;;;;;;;18.75;15.75;;;;;7.32;100.00;101915.75;4919877;28;50025;-67
2023/03/05 07:38:28;;;;;;;;;20.25;17.50;;;;;7.11;100.00;101878.09;4929493;28;50308;-66
2023/03/05 07:40:53;;;;;;;;;21.25;16.75;;;;;6.76;100.00;101809.28;4929781;28;56840;-66
2023/03/05 07:43:19;;;;;;;;;21.00;16.25;;;;;6.77;100.00;101818.00;4930566;28;49930;-66
2023/03/05 07:45:45;;;;;;;;;22.50;16.00;;;;;7.42;100.00;101907.59;4905648;28;49762;-66
2023/03/05 07:48:19;;;;;;;;;22.50;14.50;;;;;7.45;100.00;101901.66;4923056;28;49805;-66
2023/03/05 07:50:45;;;;;;;;;19.75;19.50;;;;;7.27;100.00;101875.47;4929205;28;49713;-66
2023/03/05 07:53:10;;;;;;;;;25.25;18.75;;;;;7.17;100.00;101862.75;4929664;28;49595;-66
2023/03/05 07:55:44;;;;;;;;;20.00;16.25;;;;;7.41;100.00;101897.97;4930403;28;49299;-66
2023/03/05 07:58:10;;;;;;;;;26.25;20.75;;;;;7.45;100.00;101899.03;4929543;28;49470;-65
2023/03/05 08:00:36;;;;;;;;;21.50;19.75;;;;;7.46;100.00;101885.16;4930257;28;49794;-66
2023/03/05 08:03:01;;;;;;;;;21.00;16.00;;;;;7.61;100.00;101900.69;4928575;28;49491;-65
2023/03/05 08:05:26;;;;;;;;;19.00;14.00;;;;;7.37;100.00;101849.00;4929229;28;49451;-65
2023/03/05 08:07:52;;;;;;;;;17.00;15.75;;;;;7.49;100.00;101868.72;4928146;28;49691;-65
2023/03/05 08:10:17;;;;;;;;;17.75;15.50;;;;;7.74;100.00;101901.41;4928234;28;52004;-66
2023/03/05 08:12:43;;;;;;;;;18.75;15.50;;;;;7.36;100.00;101814.97;4930771;28;49323;-66
2023/03/05 08:15:08;;;;;;;;;25.75;16.50;;;;;7.82;100.00;101886.13;4929683;28;49895;-66
2023/03/05 08:17:34;;;;;;;;;20.25;16.00;;;;;7.88;100.00;101888.13;4928438;28;49720;-66
2023/03/05 08:20:04;;;;;;;;;20.75;18.25;;;;;7.80;100.00;101869.44;4913091;28;49832;-66
2023/03/05 08:22:31;;;;;;;;;28.00;20.25;;;;;7.94;100.00;101871.03;4913161;28;49795;-66
2023/03/05 08:24:56;;;;;;;;;23.75;18.00;;;;;8.09;100.00;101878.69;4914045;28;49840;-66
2023/03/05 08:27:22;;;;;;;;;24.00;22.50;;;;;7.99;100.00;101843.38;4913002;28;54269;-66
2023/03/05 08:29:47;;;;;;;;;24.00;21.50;;;;;7.69;100.00;101771.31;4913212;28;52015;-66
2023/03/05 08:32:12;;;;;;;;;24.75;20.50;;;;;8.03;100.00;101824.41;4913274;28;52028;-65
2023/03/05 08:34:37;;;;;;;;;20.50;20.25;;;;;8.31;100.00;101857.09;4911910;28;50022;-66
2023/03/05 08:37:03;;;;;;;;;29.00;22.00;;;;;8.27;100.00;101831.59;4913477;28;49999;-65
2023/03/05 08:39:29;;;;;;;;;25.50;22.75;;;;;8.45;100.00;101860.41;4911651;28;56992;-65
2023/03/05 08:41:54;;;;;;;;;26.75;20.50;;;;;8.50;100.00;101870.25;4913635;28;49803;-66
2023/03/05 08:44:19;;;;;;;;;28.75;23.00;;;;;8.47;100.00;101885.81;4912169;28;49906;-65
2023/03/05 08:46:45;;;;;;;;;20.75;17.50;;;;;8.37;100.00;101854.78;4913289;28;50320;-68
2023/03/05 08:49:10;;;;;;;;;18.75;18.50;;;;;8.54;100.00;101873.91;4912804;28;53951;-66
2023/03/05 08:51:35;;;;;;;;;18.75;17.50;;;;;8.59;100.00;101872.41;4912847;28;49770;-66
2023/03/05 08:54:02;;;;;;;;;24.25;21.00;;;;;8.45;100.00;101835.13;4895178;28;49687;-66
2023/03/05 08:56:30;;;;;;;;;25.00;21.75;;;;;8.62;100.00;101869.03;4894304;28;49945;-66
2023/03/05 08:58:55;;;;;;;;;24.25;22.00;;;;;8.59;100.00;101830.53;4895134;28;50484;-67
2023/03/05 09:01:22;;;;;;;;;30.25;24.00;;;;;8.83;100.00;101854.31;4909489;28;49537;-66
2023/03/05 09:03:47;;;;;;;;;22.50;18.25;;;;;9.03;100.00;101863.94;4906478;28;49654;-67
2023/03/05 09:06:13;;;;;;;;;23.50;21.50;;;;;9.07;100.00;101867.59;4908991;28;49534;-67
2023/03/05 09:08:38;;;;;;;;;27.00;19.00;;;;;8.94;100.00;101829.50;4909166;28;49967;-66
2023/03/05 09:11:06;;;;;;;;;30.50;20.50;;;;;9.08;100.00;101844.09;4900953;28;49769;-66
2023/03/05 09:13:32;;;;;;;;;22.25;20.50;;;;;9.22;100.00;101867.38;4910958;28;49398;-67
2023/03/05 09:16:01;;;;;;;;;22.75;21.75;;;;;9.23;100.00;101846.47;4903308;28;49666;-66
2023/03/05 09:18:26;;;;;;;;;16.00;13.25;;;;;9.37;100.00;101866.34;4905399;28;49949;-67
2023/03/05 09:20:52;;;;;;;;;20.00;17.50;;;;;9.29;100.00;101848.47;4904115;28;49965;-67
2023/03/05 09:23:18;;;;;;;;;20.75;18.00;;;;;9.13;100.00;101824.22;4908589;28;49959;-67
2023/03/05 09:25:44;;;;;;;;;24.50;20.50;;;;;9.41;100.00;101860.38;4909552;28;49648;-67
2023/03/05 09:28:09;;;;;;;;;23.75;16.25;;;;;8.99;100.00;101787.81;4906799;28;50045;-66
2023/03/05 09:30:35;;;;;;;;;22.50;20.50;;;;;9.25;100.00;101836.06;4903453;28;49649;-66
2023/03/05 09:33:01;;;;;;;;;23.25;20.00;;;;;9.39;100.00;101851.56;4899058;28;49864;-66
2023/03/05 09:35:27;;;;;;;;;21.00;18.00;;;;;9.33;100.00;101834.66;4908892;28;49646;-68
2023/03/05 09:37:53;;;;;;;;;17.50;16.00;;;;;9.43;100.00;101824.66;4910272;28;50061;-66
2023/03/05 09:40:20;;;;;;;;;22.50;18.75;;;;;9.30;100.00;101782.16;4908285;28;49665;-66
2023/03/05 09:43:09;;;;;;;;;21.00;18.25;;;;;9.76;100.00;101850.50;4909422;28;49367;-66
2023/03/05 09:45:43;;;;;;;;;21.25;20.00;;;;;9.81;100.00;101840.19;4907788;28;49910;-73
2023/03/05 09:48:19;;;;;;;;;20.50;20.00;;;;;9.65;100.00;101804.56;4908626;28;49709;-69
2023/03/05 09:50:51;;;;;;;;;20.50;19.00;;;;;9.84;100.00;101849.06;4923957;28;49756;-67
2023/03/05 09:53:30;;;;;;;;;21.00;17.75;;;;;9.34;100.00;101731.63;4904403;28;49659;-70
2023/03/05 09:55:59;;;;;;;;;18.75;17.75;;;;;9.89;100.00;101821.31;4914823;28;49431;-68
2023/03/05 09:58:36;;;;;;;;;20.25;16.75;;;;;9.88;100.00;101814.28;4927093;28;49789;-68
2023/03/05 10:01:12;;;;;;;;;16.00;16.00;;;;;9.71;100.00;101813.59;4921379;28;49748;-67
2023/03/05 10:03:55;;;;;;;;;20.50;17.75;;;;;9.45;100.00;101761.81;4923248;28;49549;-66
2023/03/05 10:06:25;;;;;;;;;28.25;21.50;;;;;9.65;100.00;101815.97;4925913;28;49786;-66
2023/03/05 10:09:04;;;;;;;;;18.25;14.75;;;;;9.40;100.00;101765.97;4924579;28;50115;-64
2023/03/05 10:11:35;;;;;;;;;17.00;14.25;;;;;9.45;100.00;101772.28;4925550;28;49614;-69
2023/03/05 10:14:04;;;;;;;;;14.75;14.75;;;;;9.50;100.00;101775.13;4921550;28;49751;-73
2023/03/05 10:16:38;;;;;;;;;17.50;16.50;;;;;9.65;100.00;101792.38;4919403;28;49435;-65
2023/03/05 10:19:31;;;;;;;;;15.00;13.50;;;;;9.48;100.00;101769.81;4906159;28;49797;-64
2023/03/05 10:22:12;;;;;;;;;18.50;15.50;;;;;9.57;100.00;101777.16;4930017;28;49435;-69
2023/03/05 10:24:45;;;;;;;;;23.50;19.25;;;;;9.39;100.00;101737.97;4918140;28;49768;-64
2023/03/05 10:27:16;;;;;;;;;20.25;16.50;;;;;9.61;100.00;101758.09;4906577;28;49903;-64
2023/03/05 10:29:57;;;;;;;;;17.50;16.25;;;;;9.51;100.00;101733.22;4909811;28;49890;-64
2023/03/05 10:32:46;;;;;;;;;22.75;17.50;;;;;9.59;100.00;101729.19;4904933;28;49687;-65
2023/03/05 10:35:40;;;;;;;;;18.50;16.25;;;;;9.76;100.00;101756.09;4903103;28;49409;-66
2023/03/05 10:38:17;;;;;;;;;19.50;18.00;;;;;9.83;100.00;101780.81;4905340;28;49685;-66
2023/03/05 10:40:47;;;;;;;;;21.00;19.00;;;;;9.77;100.00;101776.25;4902085;28;49912;-66
2023/03/05 10:43:29;;;;;;;;;25.25;20.50;;;;;9.45;100.00;101736.47;4900555;28;49581;-66
2023/03/05 10:45:57;;;;;;;;;18.00;16.75;;;;;9.52;100.00;101749.84;4906550;28;49756;-65
2023/03/05 10:48:43;;;;;;;;;16.25;15.25;;;;;9.58;100.00;101745.75;4905365;28;49887;-68
2023/03/05 10:51:18;;;;;;;;;13.25;12.00;;;;;9.77;100.00;101768.38;4909638;28;52814;-64
2023/03/05 10:54:27;;;;;;;;;17.25;12.25;;;;;9.52;100.00;101732.41;4906141;28;50023;-66
2023/03/05 10:57:12;;;;;;;;;15.00;13.00;;;;;9.73;100.00;101764.72;4901063;28;49874;-67
2023/03/05 10:59:43;;;;;;;;;17.50;15.75;;;;;9.61;100.00;101747.59;4908871;28;50038;-65
2023/03/05 11:02:08;;;;;;;;;16.75;13.25;;;;;9.50;100.00;101726.19;4903050;28;50632;-62
2023/03/05 11:04:37;;;;;;;;;17.50;13.75;;;;;9.22;100.00;101671.78;4901251;28;50195;-62
2023/03/05 11:07:14;;;;;;;;;13.00;12.75;;;;;9.82;100.00;101758.94;4921701;28;49747;-62
2023/03/05 11:10:15;;;;;;;;;12.75;12.75;;;;;9.73;100.00;101735.88;4908800;28;50029;-63
2023/03/05 11:12:40;;;;;;;;;13.00;12.75;;;;;9.79;100.00;101742.19;4912384;28;50923;-65